Time;durP1;ratioP1;P1;durP2;ratioP2;P2;SDS_P1;SDS_P2;PMS_P1;PMS_P2;Temp;Humidity;BMP_temperature;BMP_pressure;BME280_temperature;BME280_humidity;BME280_pressure;Samples;Min_cycle;Max_cycle;Signal;HPM_P1;HPM_P2
2022/06/14 00:01:52;;;;;;;3.10;0.20;;;32.00;30.10;;;;;;5062396;28;20532;-61
2022/06/14 00:04:19;;;;;;;0.55;0.20;;;31.90;30.00;;;;;;5057489;28;20040;-62
2022/06/14 00:06:46;;;;;;;2.00;0.22;;;31.90;30.00;;;;;;5055860;28;20131;-62
2022/06/14 00:09:13;;;;;;;1.13;0.10;;;31.80;30.00;;;;;;5049465;28;20033;-61
2022/06/14 00:11:41;;;;;;;2.90;0.70;;;31.80;30.10;;;;;;5055145;28;20057;-62
2022/06/14 00:14:10;;;;;;;1.27;0.10;;;31.80;30.10;;;;;;5058459;28;20037;-63
2022/06/14 00:16:39;;;;;;;1.50;0.28;;;31.80;30.70;;;;;;5058065;28;20073;-62
2022/06/14 00:19:07;;;;;;;1.00;0.20;;;31.80;30.20;;;;;;5055050;28;20045;-63
2022/06/14 00:21:35;;;;;;;1.17;0.10;;;31.70;30.20;;;;;;5058588;28;20684;-63
2022/06/14 00:24:02;;;;;;;1.13;0.22;;;31.70;30.20;;;;;;5096401;28;20039;-63
2022/06/14 00:26:31;;;;;;;2.85;0.47;;;31.70;30.20;;;;;;5096990;28;20128;-62
2022/06/14 00:28:58;;;;;;;3.03;0.10;;;31.60;30.20;;;;;;5099220;28;20071;-62
2022/06/14 00:31:27;;;;;;;1.50;0.20;;;31.60;30.20;;;;;;5095587;28;20126;-62
2022/06/14 00:33:55;;;;;;;1.17;0.10;;;31.60;30.20;;;;;;5095057;28;20043;-61
2022/06/14 00:36:28;;;;;;;0.57;0.25;;;31.60;30.20;;;;;;5097136;28;20043;-63
2022/06/14 00:38:56;;;;;;;0.20;0.10;;;31.60;30.30;;;;;;5097020;28;20051;-63
2022/06/14 00:41:33;;;;;;;1.08;0.10;;;31.60;30.30;;;;;;5099858;28;20637;-63
2022/06/14 00:44:00;;;;;;;1.42;0.20;;;31.60;31.00;;;;;;5096789;28;20113;-62
2022/06/14 00:46:34;;;;;;;4.03;0.77;;;31.60;30.40;;;;;;5099320;28;20070;-64
2022/06/14 00:49:06;;;;;;;1.05;0.30;;;31.50;30.30;;;;;;5093236;28;20140;-63
2022/06/14 00:51:38;;;;;;;1.58;0.20;;;31.50;30.30;;;;;;5095754;28;20033;-64
2022/06/14 00:54:13;;;;;;;1.52;0.20;;;31.50;30.30;;;;;;5095177;28;20040;-64
2022/06/14 00:56:47;;;;;;;0.47;0.10;;;31.50;30.30;;;;;;5099048;28;20191;-64
2022/06/14 00:59:21;;;;;;;0.55;0.20;;;31.40;30.30;;;;;;5093644;28;20046;-64
2022/06/14 01:01:51;;;;;;;1.08;0.25;;;31.40;30.30;;;;;;5098436;28;20121;-64
2022/06/14 01:04:25;;;;;;;3.95;0.73;;;31.40;30.30;;;;;;5098731;28;20072;-64
2022/06/14 01:06:57;;;;;;;1.75;0.30;;;31.40;30.30;;;;;;5093900;28;20109;-65
2022/06/14 01:09:29;;;;;;;1.55;0.20;;;31.40;30.20;;;;;;5092282;28;20044;-63
2022/06/14 01:12:02;;;;;;;1.35;0.20;;;31.30;30.20;;;;;;5096323;28;20919;-62
2022/06/14 01:14:37;;;;;;;2.75;0.10;;;31.30;30.20;;;;;;5095770;28;20656;-60
2022/06/14 01:17:04;;;;;;;1.17;0.10;;;31.30;30.20;;;;;;5099901;28;20067;-63
2022/06/14 01:19:34;;;;;;;0.10;0.10;;;31.30;30.30;;;;;;5100803;28;20899;-63
2022/06/14 01:22:25;;;;;;;1.27;0.10;;;31.30;30.30;;;;;;5099882;28;20091;-63
2022/06/14 01:24:52;;;;;;;1.98;0.38;;;31.30;30.20;;;;;;5103026;28;20051;-62
2022/06/14 01:27:22;;;;;;;0.82;0.30;;;31.30;30.30;;;;;;5098311;28;20072;-62
2022/06/14 01:29:57;;;;;;;1.48;0.25;;;31.30;30.30;;;;;;5099844;28;20040;-62
2022/06/14 01:32:27;;;;;;;2.33;0.25;;;31.30;30.40;;;;;;5096319;28;20089;-63
2022/06/14 01:34:58;;;;;;;0.50;0.28;;;31.30;30.50;;;;;;5103709;28;20044;-63
2022/06/14 01:37:27;;;;;;;0.20;0.10;;;31.30;30.50;;;;;;5096311;28;20135;-61
2022/06/14 01:39:57;;;;;;;0.25;0.20;;;31.30;30.60;;;;;;5097854;28;20127;-61
2022/06/14 01:42:29;;;;;;;3.67;0.20;;;31.30;30.70;;;;;;5101714;28;20046;-61
2022/06/14 01:45:07;;;;;;;1.15;0.30;;;31.30;30.80;;;;;;5099283;28;20044;-62
2022/06/14 01:47:41;;;;;;;1.38;0.10;;;31.30;30.80;;;;;;5099658;28;20047;-61
2022/06/14 01:53:20;;;;;;;1.38;0.10;;;31.30;30.90;;;;;;5102178;28;20130;-62
2022/06/14 01:55:54;;;;;;;0.20;0.10;;;31.30;31.00;;;;;;5102283;28;20040;-63
2022/06/14 01:58:33;;;;;;;5.60;0.20;;;31.20;31.00;;;;;;5097568;28;20533;-63
2022/06/14 02:01:09;;;;;;;1.75;0.20;;;31.20;31.00;;;;;;5097564;28;20092;-63
2022/06/14 02:06:34;;;;;;;0.40;0.30;;;31.20;31.10;;;;;;5097237;28;20066;-63
2022/06/14 02:09:08;;;;;;;0.90;0.20;;;31.20;31.10;;;;;;5096677;28;20047;-62
2022/06/14 02:11:36;;;;;;;1.13;0.10;;;31.20;31.10;;;;;;5097672;28;20168;-62
2022/06/14 02:14:10;;;;;;;0.40;0.10;;;31.20;31.20;;;;;;5103884;28;20688;-62
2022/06/14 02:16:44;;;;;;;0.20;0.10;;;31.20;31.20;;;;;;5097728;28;20100;-62
2022/06/14 02:19:16;;;;;;;0.55;0.20;;;31.20;31.20;;;;;;5098057;27;20048;-62
2022/06/14 02:21:47;;;;;;;0.52;0.10;;;31.20;31.30;;;;;;5100804;28;20072;-62
2022/06/14 02:24:19;;;;;;;0.20;0.10;;;31.20;31.30;;;;;;5098339;28;20496;-62
2022/06/14 02:26:50;;;;;;;0.47;0.10;;;31.20;31.30;;;;;;5096822;28;20075;-62
2022/06/14 02:29:22;;;;;;;0.35;0.10;;;31.20;31.30;;;;;;5094094;28;20348;-62
2022/06/14 02:31:55;;;;;;;0.20;0.10;;;31.20;31.30;;;;;;5101712;28;20064;-62
2022/06/14 02:34:28;;;;;;;1.70;0.10;;;31.20;31.40;;;;;;5100978;28;20130;-63
2022/06/14 02:37:04;;;;;;;0.10;0.10;;;31.20;31.30;;;;;;5096193;28;20048;-63
2022/06/14 02:39:37;;;;;;;0.20;0.10;;;31.20;31.30;;;;;;5094333;28;20380;-63
2022/06/14 02:42:10;;;;;;;1.90;0.10;;;31.20;31.20;;;;;;5097268;28;20100;-64
2022/06/14 02:44:42;;;;;;;0.63;0.20;;;31.20;31.40;;;;;;5101477;28;20071;-63
2022/06/14 02:47:23;;;;;;;0.40;0.40;;;31.10;31.20;;;;;;5100247;28;20044;-63
2022/06/14 02:49:56;;;;;;;1.48;0.08;;;31.20;31.20;;;;;;5094476;28;20222;-63
2022/06/14 02:52:29;;;;;;;0.47;0.47;;;31.20;31.20;;;;;;5101855;28;20040;-63
2022/06/14 02:55:04;;;;;;;1.75;0.13;;;31.20;31.10;;;;;;5079162;28;20916;-62
2022/06/14 02:57:38;;;;;;;0.35;0.10;;;31.10;31.00;;;;;;5097671;28;20144;-62
2022/06/14 03:00:10;;;;;;;4.70;0.50;;;31.20;31.10;;;;;;5095476;28;20047;-61
2022/06/14 03:02:43;;;;;;;0.52;0.05;;;31.10;30.90;;;;;;5100480;28;20379;-61
2022/06/14 03:05:16;;;;;;;0.35;0.10;;;31.10;30.90;;;;;;5099480;28;20520;-61
2022/06/14 03:07:50;;;;;;;1.77;0.10;;;31.10;30.90;;;;;;5096102;28;20461;-62
2022/06/14 03:10:19;;;;;;;0.10;0.10;;;31.10;30.90;;;;;;5096920;28;20036;-62
2022/06/14 03:12:56;;;;;;;1.17;0.10;;;31.00;30.80;;;;;;5100511;28;20035;-62
2022/06/14 03:15:32;;;;;;;0.95;0.35;;;31.00;30.80;;;;;;5095145;28;20040;-62
2022/06/14 03:18:04;;;;;;;;;;;31.00;30.80;;;;;;5096090;28;20157;-62
2022/06/14 03:20:44;;;;;;;0.43;0.00;;;30.90;30.70;;;;;;5079775;28;19927;-61
2022/06/14 03:23:21;;;;;;;0.47;0.10;;;30.90;30.80;;;;;;5102045;28;20079;-61
2022/06/14 03:25:56;;;;;;;1.83;0.13;;;30.90;30.90;;;;;;5096072;28;20159;-62
2022/06/14 03:28:29;;;;;;;0.65;0.15;;;30.90;30.80;;;;;;5089159;28;21143;-62
2022/06/14 03:31:06;;;;;;;4.15;0.10;;;30.90;30.90;;;;;;5098966;28;20043;-63
2022/06/14 03:33:38;;;;;;;0.30;0.10;;;30.80;30.80;;;;;;5096492;28;20071;-63
2022/06/14 03:36:06;;;;;;;0.85;0.10;;;30.80;30.80;;;;;;5099905;28;20508;-62
2022/06/14 03:38:37;;;;;;;0.88;0.10;;;30.80;30.90;;;;;;5093928;28;20044;-63
2022/06/14 03:41:08;;;;;;;0.10;0.10;;;30.80;30.80;;;;;;5098855;28;20071;-63
2022/06/14 03:43:37;;;;;;;0.45;0.10;;;30.80;30.90;;;;;;5076855;28;20048;-63
2022/06/14 03:46:11;;;;;;;0.82;0.10;;;30.80;30.90;;;;;;5097612;28;20042;-63
2022/06/14 03:48:41;;;;;;;0.85;0.10;;;30.80;31.00;;;;;;5091960;28;20044;-62
2022/06/14 03:51:14;;;;;;;1.85;0.10;;;30.80;31.00;;;;;;5099777;28;20120;-63
2022/06/14 03:54:04;;;;;;;0.68;0.25;;;30.70;31.00;;;;;;5094079;28;20042;-63
2022/06/14 03:56:54;;;;;;;0.13;0.10;;;30.70;31.00;;;;;;5097465;28;20055;-62
2022/06/14 03:59:35;;;;;;;1.85;0.10;;;30.70;31.10;;;;;;5092082;28;20112;-63
2022/06/14 04:02:10;;;;;;;1.75;0.10;;;30.70;31.10;;;;;;5096348;28;20043;-62
2022/06/14 04:04:48;;;;;;;0.10;0.10;;;30.70;31.20;;;;;;5092214;28;20113;-62
2022/06/14 04:07:23;;;;;;;0.10;0.10;;;30.60;31.10;;;;;;5096362;28;20043;-62
2022/06/14 04:09:57;;;;;;;0.90;0.10;;;30.60;31.20;;;;;;5093276;28;20067;-61
2022/06/14 04:12:38;;;;;;;2.40;0.10;;;30.60;31.20;;;;;;5095114;28;20073;-62
2022/06/14 04:15:21;;;;;;;0.80;0.35;;;30.60;31.30;;;;;;5099323;28;20655;-62
2022/06/14 04:17:56;;;;;;;0.43;0.10;;;30.50;31.20;;;;;;5095528;28;20524;-62
2022/06/14 04:20:30;;;;;;;0.97;0.10;;;30.50;31.40;;;;;;5096097;28;20043;-62
2022/06/14 04:23:10;;;;;;;1.30;0.20;;;30.50;31.40;;;;;;5098454;28;20052;-61
2022/06/14 04:25:43;;;;;;;0.10;0.10;;;30.50;31.50;;;;;;5094249;28;20047;-62
2022/06/14 04:28:19;;;;;;;0.52;0.10;;;30.50;31.40;;;;;;5086770;28;20147;-63
2022/06/14 04:30:53;;;;;;;1.33;0.15;;;30.50;31.50;;;;;;5079691;28;20130;-64
2022/06/14 04:33:27;;;;;;;0.85;0.05;;;30.50;31.50;;;;;;5095631;27;20047;-64
2022/06/14 04:35:58;;;;;;;0.40;0.10;;;30.50;31.50;;;;;;5098143;28;20116;-63
2022/06/14 04:38:31;;;;;;;1.25;0.00;;;30.50;31.50;;;;;;5092809;28;20044;-64
2022/06/14 04:41:03;;;;;;;0.57;0.10;;;30.50;31.50;;;;;;5080550;28;20050;-64
2022/06/14 04:43:39;;;;;;;0.43;0.28;;;30.40;31.40;;;;;;5094460;28;20647;-64
2022/06/14 04:46:12;;;;;;;0.43;0.10;;;30.50;31.50;;;;;;5096173;28;20066;-62
2022/06/14 04:48:43;;;;;;;0.10;0.10;;;30.50;31.40;;;;;;5092083;28;20043;-62
2022/06/14 04:51:21;;;;;;;0.00;0.00;;;30.50;31.40;;;;;;5097316;28;20043;-61
2022/06/14 04:53:53;;;;;;;0.50;0.20;;;30.50;31.40;;;;;;5097727;28;20038;-63
2022/06/14 04:56:25;;;;;;;1.40;0.28;;;30.50;31.40;;;;;;5101256;28;20050;-62
2022/06/14 04:59:00;;;;;;;0.43;0.10;;;30.40;31.40;;;;;;5098945;28;20039;-62
2022/06/14 05:01:32;;;;;;;0.20;0.10;;;30.40;31.30;;;;;;5099524;28;20039;-61
2022/06/14 05:04:06;;;;;;;0.40;0.30;;;30.40;31.30;;;;;;5100498;28;20070;-62
2022/06/14 05:06:39;;;;;;;0.70;0.10;;;30.40;31.30;;;;;;5102841;28;20567;-62
2022/06/14 05:09:10;;;;;;;0.20;0.10;;;30.50;31.40;;;;;;5096410;28;20040;-63
2022/06/14 05:11:43;;;;;;;1.58;0.10;;;30.40;31.40;;;;;;5103253;28;20044;-63
2022/06/14 05:14:16;;;;;;;1.65;0.10;;;30.40;31.40;;;;;;5103737;28;20114;-63
2022/06/14 05:16:47;;;;;;;0.30;0.25;;;30.40;31.40;;;;;;5098342;28;20044;-63
2022/06/14 05:19:20;;;;;;;0.30;0.30;;;30.40;31.40;;;;;;5096983;28;20044;-63
2022/06/14 05:21:53;;;;;;;0.10;0.10;;;30.40;31.40;;;;;;5097702;28;20040;-63
2022/06/14 05:24:21;;;;;;;0.45;0.20;;;30.40;31.70;;;;;;5099655;28;20035;-62
2022/06/14 05:27:09;;;;;;;1.33;0.10;;;30.40;31.80;;;;;;5099891;28;20047;-62
2022/06/14 05:29:45;;;;;;;1.52;0.10;;;30.40;31.80;;;;;;5098725;28;20048;-62
2022/06/14 05:32:20;;;;;;;0.80;0.10;;;30.50;31.90;;;;;;5100106;28;20043;-62
2022/06/14 05:35:00;;;;;;;0.10;0.10;;;30.50;31.70;;;;;;5102661;28;20055;-63
2022/06/14 05:37:35;;;;;;;1.27;0.10;;;30.50;31.70;;;;;;5094627;28;20106;-62
2022/06/14 05:40:10;;;;;;;2.53;0.10;;;30.50;31.80;;;;;;5096141;28;20086;-65
2022/06/14 05:42:48;;;;;;;2.35;0.30;;;30.50;31.70;;;;;;5101432;28;20516;-62
2022/06/14 05:45:22;;;;;;;1.00;0.20;;;30.50;31.50;;;;;;5098981;27;20144;-62
2022/06/14 05:47:51;;;;;;;3.75;0.57;;;30.50;31.60;;;;;;5096193;28;20131;-61
2022/06/14 05:50:24;;;;;;;0.30;0.10;;;30.50;31.60;;;;;;5102394;28;20440;-61
2022/06/14 05:52:56;;;;;;;1.30;0.10;;;30.50;31.50;;;;;;5082523;28;20047;-62
2022/06/14 05:55:30;;;;;;;5.22;0.20;;;30.50;31.70;;;;;;5094493;28;20130;-63
2022/06/14 05:58:02;;;;;;;3.40;0.10;;;30.50;31.50;;;;;;5095155;28;20052;-62
2022/06/14 06:00:35;;;;;;;0.10;0.10;;;30.60;31.40;;;;;;5098240;28;20596;-60
2022/06/14 06:03:08;;;;;;;1.25;0.25;;;30.50;31.20;;;;;;5099618;28;20051;-65
2022/06/14 06:05:41;;;;;;;0.22;0.10;;;30.50;31.20;;;;;;5099018;28;20158;-62
2022/06/14 06:08:14;;;;;;;0.80;0.10;;;30.50;31.20;;;;;;5099774;28;20040;-62
2022/06/14 06:10:44;;;;;;;0.63;0.10;;;30.50;31.20;;;;;;5096676;28;20295;-62
2022/06/14 06:13:18;;;;;;;0.47;0.40;;;30.60;31.20;;;;;;5100581;28;20071;-63
2022/06/14 06:15:51;;;;;;;0.30;0.10;;;30.50;31.00;;;;;;5097361;28;20043;-64
2022/06/14 06:18:25;;;;;;;1.33;0.15;;;30.50;31.10;;;;;;5095327;28;20092;-61
2022/06/14 06:20:58;;;;;;;1.17;0.17;;;30.50;31.10;;;;;;5097628;28;20040;-64
2022/06/14 06:23:32;;;;;;;2.30;0.10;;;30.50;31.10;;;;;;5099287;28;20437;-63
2022/06/14 06:25:59;;;;;;;1.60;0.47;;;30.50;31.20;;;;;;5100497;28;20142;-64
2022/06/14 06:28:28;;;;;;;3.40;0.17;;;30.50;31.10;;;;;;5097624;28;20118;-64
2022/06/14 06:31:02;;;;;;;0.57;0.20;;;30.50;31.10;;;;;;5080928;28;20071;-63
2022/06/14 06:33:33;;;;;;;1.33;0.20;;;30.50;31.10;;;;;;5098537;28;20773;-63
2022/06/14 06:36:15;;;;;;;0.50;0.20;;;30.50;31.10;;;;;;5096797;28;20085;-63
2022/06/14 06:38:52;;;;;;;3.10;0.20;;;30.50;31.10;;;;;;5093938;28;20047;-63
2022/06/14 06:44:14;;;;;;;1.60;0.10;;;30.60;31.10;;;;;;5101186;28;20039;-63
2022/06/14 06:46:47;;;;;;;2.22;1.38;;;30.50;30.90;;;;;;5098586;28;20043;-63
2022/06/14 06:49:18;;;;;;;6.88;3.85;;;30.50;30.90;;;;;;5095681;28;20112;-63
2022/06/14 06:51:51;;;;;;;6.95;3.35;;;30.50;30.90;;;;;;5098429;28;20567;-63
2022/06/14 06:54:25;;;;;;;3.88;1.92;;;30.50;30.80;;;;;;5092492;28;20043;-64
2022/06/14 06:56:57;;;;;;;3.88;1.92;;;30.50;30.80;;;;;;5097983;28;20040;-63
2022/06/14 06:59:28;;;;;;;2.88;1.67;;;30.50;30.60;;;;;;5094340;28;20174;-63
2022/06/14 07:02:02;;;;;;;2.13;1.92;;;30.50;30.50;;;;;;5101191;28;20043;-63
2022/06/14 07:07:43;;;;;;;1.52;0.40;;;30.50;30.40;;;;;;5034475;28;20574;-63
2022/06/14 07:10:20;;;;;;;1.92;0.25;;;30.50;30.30;;;;;;5032165;28;20045;-63
2022/06/14 07:12:53;;;;;;;2.70;0.30;;;30.50;30.30;;;;;;5036552;28;20064;-63
2022/06/14 07:15:27;;;;;;;0.63;0.30;;;30.50;30.30;;;;;;5030793;28;20141;-62
2022/06/14 07:18:02;;;;;;;0.82;0.20;;;30.50;30.20;;;;;;5029707;28;20051;-63
2022/06/14 07:20:48;;;;;;;2.35;0.28;;;30.50;30.20;;;;;;5030670;28;20099;-60
2022/06/14 07:23:22;;;;;;;1.13;0.35;;;30.50;30.10;;;;;;5035689;28;20195;-63
2022/06/14 07:25:59;;;;;;;1.98;0.20;;;30.50;30.20;;;;;;5035623;28;20147;-63
2022/06/14 07:28:35;;;;;;;2.20;0.35;;;30.50;30.20;;;;;;5033009;28;20798;-62
2022/06/14 07:31:06;;;;;;;2.65;0.20;;;30.50;30.10;;;;;;5034293;28;20053;-63
2022/06/14 07:33:37;;;;;;;1.30;0.22;;;30.50;30.00;;;;;;5020097;28;20648;-62
2022/06/14 07:36:12;;;;;;;1.58;0.22;;;30.50;30.00;;;;;;5034230;28;20045;-63
2022/06/14 07:38:49;;;;;;;0.40;0.15;;;30.50;30.00;;;;;;5061481;28;20040;-64
2022/06/14 07:41:26;;;;;;;1.27;0.15;;;30.50;30.00;;;;;;5096722;28;20069;-62
2022/06/14 07:43:59;;;;;;;0.57;0.20;;;30.50;30.00;;;;;;5101430;28;20039;-63
2022/06/14 07:46:34;;;;;;;1.77;0.80;;;30.50;30.00;;;;;;5098274;27;20423;-64
2022/06/14 07:49:09;;;;;;;1.90;0.10;;;30.50;30.00;;;;;;5094756;27;20055;-63
2022/06/14 07:51:43;;;;;;;0.97;0.10;;;30.50;30.00;;;;;;5095538;28;20043;-63
2022/06/14 07:54:16;;;;;;;3.00;0.35;;;30.50;30.10;;;;;;5094876;28;20040;-62
2022/06/14 07:56:51;;;;;;;0.70;0.38;;;30.50;30.20;;;;;;5098354;27;20059;-63
2022/06/14 07:59:23;;;;;;;1.10;0.10;;;30.50;30.10;;;;;;5094089;28;20053;-64
2022/06/14 08:01:58;;;;;;;2.17;0.30;;;30.50;30.10;;;;;;5079797;28;20289;-62
2022/06/14 08:04:33;;;;;;;1.55;0.65;;;30.60;30.30;;;;;;5095277;28;20058;-63
2022/06/14 08:07:05;;;;;;;2.50;0.30;;;30.50;30.20;;;;;;5096719;28;20130;-63
2022/06/14 08:09:41;;;;;;;0.85;0.10;;;30.50;30.20;;;;;;5094470;28;20071;-63
2022/06/14 08:12:13;;;;;;;1.88;0.10;;;30.60;30.30;;;;;;5098200;28;20036;-62
2022/06/14 08:14:46;;;;;;;3.38;0.13;;;30.60;30.30;;;;;;5079392;28;20063;-62
2022/06/14 08:17:19;;;;;;;2.20;0.25;;;30.60;30.30;;;;;;5097134;28;20127;-62
2022/06/14 08:19:52;;;;;;;5.22;0.30;;;30.60;30.40;;;;;;5095338;28;20136;-63
2022/06/14 08:22:28;;;;;;;2.40;0.20;;;30.60;31.10;;;;;;5096340;28;20135;-57
2022/06/14 08:25:05;;;;;;;2.20;0.13;;;30.60;30.90;;;;;;5100397;28;20617;-53
2022/06/14 08:27:35;;;;;;;2.03;0.20;;;30.70;30.90;;;;;;5093895;28;20058;-55
2022/06/14 08:30:09;;;;;;;9.05;1.05;;;30.70;31.00;;;;;;5095313;28;20176;-55
2022/06/14 08:32:44;;;;;;;4.07;0.20;;;30.70;30.90;;;;;;5077560;28;20900;-54
2022/06/14 08:35:17;;;;;;;0.37;0.20;;;30.70;31.70;;;;;;5101715;28;20043;-60
2022/06/14 08:37:49;;;;;;;3.65;0.30;;;30.70;32.00;;;;;;5096655;27;20299;-61
2022/06/14 08:40:37;;;;;;;2.22;0.30;;;30.70;31.10;;;;;;5094927;28;20660;-60
2022/06/14 08:43:09;;;;;;;2.05;0.30;;;30.80;31.10;;;;;;5096252;28;20054;-61
2022/06/14 08:45:39;;;;;;;1.17;0.55;;;30.80;31.20;;;;;;5094066;28;20491;-61
2022/06/14 08:48:19;;;;;;;1.42;0.20;;;30.80;31.20;;;;;;5093535;28;20055;-60
2022/06/14 08:51:10;;;;;;;8.70;0.70;;;30.80;31.10;;;;;;5097432;28;20039;-61
2022/06/14 08:54:16;;;;;;;2.90;0.17;;;30.90;31.10;;;;;;5094438;28;20044;-60
2022/06/14 08:57:04;;;;;;;0.73;0.15;;;30.90;31.00;;;;;;5099444;28;20096;-59
2022/06/14 09:00:06;;;;;;;3.53;0.10;;;30.90;30.90;;;;;;5092589;28;20470;-60
2022/06/14 09:03:19;;;;;;;2.45;0.20;;;30.90;30.80;;;;;;5098208;28;20044;-60
2022/06/14 09:06:27;;;;;;;2.42;0.10;;;31.00;30.90;;;;;;5098027;28;20043;-59
2022/06/14 09:09:13;;;;;;;2.30;0.15;;;31.00;30.80;;;;;;5091886;28;20071;-60
2022/06/14 09:12:09;;;;;;;1.63;0.47;;;31.00;30.60;;;;;;5092805;28;20041;-60
2022/06/14 09:15:19;;;;;;;2.40;0.13;;;31.00;30.60;;;;;;5095782;28;20039;-60
2022/06/14 09:18:10;;;;;;;4.35;1.00;;;31.00;30.40;;;;;;5008952;28;20200;-60
2022/06/14 09:20:42;;;;;;;3.03;0.85;;;31.00;30.30;;;;;;5012517;28;20103;-59
2022/06/14 09:23:24;;;;;;;5.50;0.95;;;31.00;30.50;;;;;;5013342;28;20077;-60
2022/06/14 09:26:22;;;;;;;10.77;0.98;;;31.00;31.00;;;;;;5017356;28;20050;-62
2022/06/14 09:29:38;;;;;;;8.10;0.50;;;31.10;32.10;;;;;;5012135;28;20054;-61
2022/06/14 09:33:09;;;;;;;7.85;1.08;;;31.10;32.90;;;;;;5014780;28;21102;-61
2022/06/14 09:35:37;;;;;;;5.97;1.23;;;31.10;33.20;;;;;;5016079;28;20038;-58
2022/06/14 09:38:22;;;;;;;19.30;1.25;;;31.10;33.20;;;;;;5010631;28;20100;-58
2022/06/14 09:41:02;;;;;;;6.00;0.80;;;31.10;33.90;;;;;;5014804;28;20045;-59
2022/06/14 09:43:55;;;;;;;7.60;0.70;;;31.00;34.00;;;;;;5015940;28;20518;-58
2022/06/14 09:47:09;;;;;;;4.53;0.65;;;30.80;33.90;;;;;;5011253;28;20049;-59
2022/06/14 09:49:58;;;;;;;5.78;0.57;;;30.70;33.80;;;;;;5011996;28;20053;-58
2022/06/14 09:53:20;;;;;;;3.92;0.52;;;30.60;34.00;;;;;;5083405;28;20046;-59
2022/06/14 09:56:09;;;;;;;2.53;0.30;;;30.50;34.00;;;;;;4996713;28;20054;-57
2022/06/14 09:59:15;;;;;;;3.22;0.30;;;30.30;34.00;;;;;;4991697;28;20194;-59
2022/06/14 10:01:51;;;;;;;5.63;0.30;;;30.30;34.20;;;;;;4959606;28;20094;-58
2022/06/14 10:04:45;;;;;;;4.32;1.00;;;30.20;34.10;;;;;;4954221;28;20043;-59
2022/06/14 10:07:37;;;;;;;3.13;0.43;;;30.10;33.70;;;;;;4951793;28;20074;-57
2022/06/14 10:10:18;;;;;;;2.00;0.20;;;30.00;33.60;;;;;;4952851;28;20122;-54
2022/06/14 10:13:32;;;;;;;1.85;0.20;;;30.00;33.80;;;;;;4951991;28;20047;-52
2022/06/14 10:16:10;;;;;;;5.05;0.30;;;29.90;33.80;;;;;;4958464;28;20047;-57
2022/06/14 10:19:08;;;;;;;3.05;0.20;;;29.80;33.70;;;;;;4951681;28;20051;-57
2022/06/14 10:21:40;;;;;;;2.17;0.20;;;29.80;34.40;;;;;;4952102;28;20043;-55
2022/06/14 10:24:18;;;;;;;1.77;0.25;;;29.70;33.80;;;;;;4956265;28;20054;-55
2022/06/14 10:30:10;;;;;;;3.63;0.17;;;29.70;33.70;;;;;;4999836;28;20046;-59
2022/06/14 10:33:08;;;;;;;4.40;0.50;;;29.70;34.20;;;;;;5027352;28;20049;-58
2022/06/14 10:35:54;;;;;;;1.05;0.25;;;29.60;33.60;;;;;;5050422;28;20144;-57
2022/06/14 10:38:43;;;;;;;6.47;0.60;;;29.60;33.50;;;;;;5067965;28;20102;-58
2022/06/14 10:41:20;;;;;;;3.33;0.20;;;29.60;33.40;;;;;;5103690;27;20117;-58
2022/06/14 10:43:55;;;;;;;2.20;0.20;;;29.50;33.30;;;;;;5095435;28;20051;-59
2022/06/14 10:46:27;;;;;;;3.45;0.20;;;29.50;33.10;;;;;;5079673;28;20032;-56
2022/06/14 10:49:23;;;;;;;2.20;0.40;;;29.50;33.00;;;;;;5094934;28;20047;-56
2022/06/14 10:52:03;;;;;;;2.25;0.15;;;29.50;32.90;;;;;;5084175;28;20126;-58
2022/06/14 10:54:43;;;;;;;2.67;0.40;;;29.50;32.90;;;;;;5093136;28;20041;-55
2022/06/14 10:57:36;;;;;;;1.85;0.60;;;29.50;32.60;;;;;;5091694;28;20121;-58
2022/06/14 11:00:17;;;;;;;3.10;0.68;;;29.50;32.30;;;;;;5090875;28;20044;-58
2022/06/14 11:03:15;;;;;;;1.92;0.30;;;29.50;32.30;;;;;;5093285;28;20040;-59
2022/06/14 11:06:01;;;;;;;2.20;0.28;;;29.40;32.00;;;;;;5088468;28;20040;-56
2022/06/14 11:08:42;;;;;;;3.75;0.30;;;29.40;32.00;;;;;;5091560;28;20054;-58
2022/06/14 11:11:27;;;;;;;3.25;0.20;;;29.40;32.00;;;;;;5095134;28;20131;-58
2022/06/14 11:14:00;;;;;;;1.88;0.20;;;29.40;31.90;;;;;;5096263;28;20135;-58
2022/06/14 11:16:36;;;;;;;1.75;0.30;;;29.40;31.90;;;;;;5095197;28;20044;-60
2022/06/14 11:19:44;;;;;;;1.25;0.40;;;29.40;31.90;;;;;;5093123;28;20070;-58
2022/06/14 11:22:30;;;;;;;1.20;0.38;;;29.40;31.80;;;;;;5038231;28;20067;-59
2022/06/14 11:25:08;;;;;;;3.83;0.30;;;29.40;31.90;;;;;;5034919;28;20128;-59
2022/06/14 11:27:43;;;;;;;1.65;0.20;;;29.40;31.90;;;;;;5033801;28;20726;-56
2022/06/14 11:30:18;;;;;;;0.90;0.20;;;29.40;31.90;;;;;;5034413;28;20087;-58
2022/06/14 11:32:53;;;;;;;1.73;0.20;;;29.40;31.80;;;;;;5039840;28;20524;-57
2022/06/14 11:35:39;;;;;;;3.42;0.35;;;29.40;31.90;;;;;;5031318;28;20072;-58
2022/06/14 11:38:28;;;;;;;3.60;0.35;;;29.40;31.80;;;;;;5038799;28;20119;-56
2022/06/14 11:41:00;;;;;;;0.50;0.20;;;29.40;31.40;;;;;;5035273;28;20077;-58
2022/06/14 11:43:39;;;;;;;2.88;0.80;;;29.40;31.90;;;;;;5034673;28;20778;-56
2022/06/14 11:46:16;;;;;;;0.98;0.40;;;29.40;31.30;;;;;;5038772;28;20229;-58
2022/06/14 11:48:50;;;;;;;3.83;0.35;;;29.40;31.40;;;;;;5033612;28;20045;-58
2022/06/14 11:51:26;;;;;;;5.40;0.25;;;29.40;31.50;;;;;;5028925;28;20119;-57
2022/06/14 11:54:28;;;;;;;3.40;0.30;;;29.50;31.60;;;;;;5028813;28;20079;-57
2022/06/14 11:57:11;;;;;;;1.27;0.50;;;29.50;31.70;;;;;;5064506;28;20044;-57
2022/06/14 12:00:02;;;;;;;2.80;0.20;;;29.50;32.00;;;;;;5088312;28;20135;-58
2022/06/14 12:02:44;;;;;;;2.22;0.30;;;29.50;32.10;;;;;;5089978;28;20500;-58
2022/06/14 12:05:35;;;;;;;1.25;0.30;;;29.50;32.20;;;;;;5097471;28;20129;-58
2022/06/14 12:08:23;;;;;;;1.75;0.28;;;29.60;32.40;;;;;;5093438;28;20055;-58
2022/06/14 12:10:52;;;;;;;1.80;0.30;;;29.60;32.20;;;;;;5095765;28;20072;-58
2022/06/14 12:13:32;;;;;;;3.05;0.28;;;29.60;32.30;;;;;;5095692;28;20696;-58
2022/06/14 12:16:07;;;;;;;1.50;0.32;;;29.60;32.30;;;;;;5091332;28;20039;-58
2022/06/14 12:18:38;;;;;;;1.98;0.40;;;29.60;32.90;;;;;;5093408;28;20068;-57
2022/06/14 12:21:11;;;;;;;2.38;0.20;;;29.60;32.30;;;;;;5095079;28;20044;-58
2022/06/14 12:23:45;;;;;;;0.50;0.20;;;29.60;32.30;;;;;;5079628;28;20056;-58
2022/06/14 12:26:34;;;;;;;0.40;0.17;;;29.70;32.30;;;;;;5088960;28;20462;-58
2022/06/14 12:29:09;;;;;;;1.90;0.30;;;29.70;32.30;;;;;;5092415;28;20044;-57
2022/06/14 12:31:46;;;;;;;0.93;0.10;;;29.70;32.30;;;;;;5095396;28;20093;-58
2022/06/14 12:34:20;;;;;;;4.80;0.35;;;29.80;32.80;;;;;;5098775;28;20089;-58
2022/06/14 12:36:56;;;;;;;4.13;0.30;;;29.80;32.20;;;;;;5097101;27;20054;-61
2022/06/14 12:39:38;;;;;;;3.22;0.20;;;29.80;32.20;;;;;;5090892;28;20089;-58
2022/06/14 12:42:09;;;;;;;4.45;0.50;;;29.80;31.80;;;;;;5092468;28;20067;-56
2022/06/14 12:44:48;;;;;;;2.47;0.50;;;29.90;31.80;;;;;;5087824;28;20036;-57
2022/06/14 12:47:19;;;;;;;0.80;0.20;;;29.90;31.70;;;;;;5095132;28;20047;-57
2022/06/14 12:49:51;;;;;;;0.43;0.20;;;30.00;31.60;;;;;;5097289;28;20063;-58
2022/06/14 12:52:25;;;;;;;1.02;0.65;;;30.00;31.70;;;;;;5091621;28;20040;-58
2022/06/14 12:54:58;;;;;;;1.83;0.13;;;30.00;31.50;;;;;;5094363;28;20392;-57
2022/06/14 12:57:46;;;;;;;2.00;0.20;;;30.00;31.30;;;;;;5090498;28;20039;-58
2022/06/14 13:00:20;;;;;;;3.00;0.30;;;30.10;31.20;;;;;;5091748;28;20036;-57
2022/06/14 13:02:54;;;;;;;2.00;0.28;;;30.10;31.10;;;;;;5086452;28;20094;-59
2022/06/14 13:05:26;;;;;;;1.30;0.15;;;30.20;31.00;;;;;;5090388;28;20040;-58
2022/06/14 13:08:14;;;;;;;0.80;0.15;;;30.20;30.90;;;;;;5098900;28;20048;-58
2022/06/14 13:10:55;;;;;;;1.27;0.13;;;30.20;30.70;;;;;;5090699;28;20051;-59
2022/06/14 13:13:53;;;;;;;1.70;0.17;;;30.20;30.60;;;;;;5095673;28;20044;-56
2022/06/14 13:16:38;;;;;;;2.22;0.30;;;30.20;30.60;;;;;;5099208;28;20040;-57
2022/06/14 13:19:14;;;;;;;1.98;0.10;;;30.30;30.60;;;;;;5097596;28;20508;-55
2022/06/14 13:22:09;;;;;;;1.70;0.95;;;30.30;30.70;;;;;;5097507;28;20035;-58
2022/06/14 13:24:44;;;;;;;0.73;0.10;;;30.30;30.60;;;;;;5095431;28;20454;-57
2022/06/14 13:27:23;;;;;;;0.30;0.10;;;30.30;30.60;;;;;;5095573;28;20232;-57
2022/06/14 13:29:59;;;;;;;1.73;0.25;;;30.30;30.40;;;;;;5092336;28;20086;-58
2022/06/14 13:32:42;;;;;;;0.50;0.20;;;30.40;30.50;;;;;;5100539;28;20071;-56
2022/06/14 13:35:31;;;;;;;1.20;0.30;;;30.40;30.40;;;;;;5100539;28;20089;-58
2022/06/14 13:38:04;;;;;;;0.77;0.20;;;30.50;30.40;;;;;;5096208;28;20127;-58
2022/06/14 13:40:37;;;;;;;0.40;0.22;;;30.50;30.30;;;;;;5097525;28;20139;-57
2022/06/14 13:43:18;;;;;;;0.40;0.10;;;30.50;30.30;;;;;;5098426;28;20028;-57
2022/06/14 13:45:55;;;;;;;0.20;0.10;;;30.50;30.20;;;;;;5094368;28;20067;-54
2022/06/14 13:48:27;;;;;;;0.30;0.20;;;30.50;30.00;;;;;;5094598;28;20157;-56
2022/06/14 13:50:58;;;;;;;0.40;0.10;;;30.50;30.00;;;;;;5092947;28;20085;-58
2022/06/14 13:53:32;;;;;;;3.03;0.30;;;30.50;29.90;;;;;;5097274;28;20040;-57
2022/06/14 13:56:05;;;;;;;0.35;0.20;;;30.60;29.90;;;;;;5096006;28;20076;-55